sensor_id;sensor_type;location;lat;lon;timestamp;P1;durP1;ratioP1;P2;durP2;ratioP2
35699;SDS011;21818;51.078;12.108;2023-05-29T00:01:52;9.27;;;3.05;;
35699;SDS011;21818;51.078;12.108;2023-05-29T00:04:17;5.85;;;2.70;;
35699;SDS011;21818;51.078;12.108;2023-05-29T00:06:43;4.93;;;2.53;;
35699;SDS011;21818;51.078;12.108;2023-05-29T00:09:09;6.43;;;2.70;;
35699;SDS011;21818;51.078;12.108;2023-05-29T00:11:34;5.47;;;2.60;;
35699;SDS011;21818;51.078;12.108;2023-05-29T00:14:00;6.25;;;3.28;;
35699;SDS011;21818;51.078;12.108;2023-05-29T00:16:25;9.23;;;3.22;;
35699;SDS011;21818;51.078;12.108;2023-05-29T00:18:51;6.70;;;3.15;;
35699;SDS011;21818;51.078;12.108;2023-05-29T00:21:18;6.63;;;3.25;;
35699;SDS011;21818;51.078;12.108;2023-05-29T00:23:44;9.85;;;3.30;;
35699;SDS011;21818;51.078;12.108;2023-05-29T00:26:10;5.35;;;2.97;;
35699;SDS011;21818;51.078;12.108;2023-05-29T00:28:35;10.68;;;3.55;;
35699;SDS011;21818;51.078;12.108;2023-05-29T00:31:04;6.65;;;3.13;;
35699;SDS011;21818;51.078;12.108;2023-05-29T00:33:29;7.43;;;3.40;;
35699;SDS011;21818;51.078;12.108;2023-05-29T00:35:55;8.43;;;3.92;;
35699;SDS011;21818;51.078;12.108;2023-05-29T00:38:21;5.95;;;2.65;;
35699;SDS011;21818;51.078;12.108;2023-05-29T00:40:46;5.00;;;2.88;;
35699;SDS011;21818;51.078;12.108;2023-05-29T00:43:12;5.47;;;3.60;;
35699;SDS011;21818;51.078;12.108;2023-05-29T00:45:37;5.38;;;2.70;;
35699;SDS011;21818;51.078;12.108;2023-05-29T00:48:03;7.05;;;3.20;;
35699;SDS011;21818;51.078;12.108;2023-05-29T00:50:30;7.43;;;3.50;;
35699;SDS011;21818;51.078;12.108;2023-05-29T00:52:56;9.88;;;4.18;;
35699;SDS011;21818;51.078;12.108;2023-05-29T00:55:23;7.40;;;3.30;;
35699;SDS011;21818;51.078;12.108;2023-05-29T00:57:49;7.18;;;3.20;;
35699;SDS011;21818;51.078;12.108;2023-05-29T01:00:15;6.18;;;3.47;;
35699;SDS011;21818;51.078;12.108;2023-05-29T01:02:41;5.90;;;3.03;;
35699;SDS011;21818;51.078;12.108;2023-05-29T01:05:10;6.60;;;3.13;;
35699;SDS011;21818;51.078;12.108;2023-05-29T01:07:36;5.80;;;3.05;;
35699;SDS011;21818;51.078;12.108;2023-05-29T01:10:03;8.80;;;3.25;;
35699;SDS011;21818;51.078;12.108;2023-05-29T01:12:36;6.88;;;3.63;;
35699;SDS011;21818;51.078;12.108;2023-05-29T01:18:03;7.88;;;3.33;;
35699;SDS011;21818;51.078;12.108;2023-05-29T01:28:51;9.88;;;2.85;;
35699;SDS011;21818;51.078;12.108;2023-05-29T01:31:20;5.60;;;3.33;;
35699;SDS011;21818;51.078;12.108;2023-05-29T01:33:56;6.60;;;3.25;;
35699;SDS011;21818;51.078;12.108;2023-05-29T01:36:23;10.20;;;3.00;;
35699;SDS011;21818;51.078;12.108;2023-05-29T01:38:50;6.53;;;3.08;;
35699;SDS011;21818;51.078;12.108;2023-05-29T01:41:17;6.75;;;3.92;;
35699;SDS011;21818;51.078;12.108;2023-05-29T01:43:44;11.70;;;3.67;;
35699;SDS011;21818;51.078;12.108;2023-05-29T01:46:12;6.07;;;3.10;;
35699;SDS011;21818;51.078;12.108;2023-05-29T01:48:39;8.68;;;3.40;;
35699;SDS011;21818;51.078;12.108;2023-05-29T01:51:06;5.30;;;3.30;;
35699;SDS011;21818;51.078;12.108;2023-05-29T01:53:32;10.18;;;3.45;;
35699;SDS011;21818;51.078;12.108;2023-05-29T01:55:58;8.35;;;3.72;;
35699;SDS011;21818;51.078;12.108;2023-05-29T01:58:23;5.43;;;3.20;;
35699;SDS011;21818;51.078;12.108;2023-05-29T02:00:51;6.47;;;3.42;;
35699;SDS011;21818;51.078;12.108;2023-05-29T02:03:17;6.32;;;3.88;;
35699;SDS011;21818;51.078;12.108;2023-05-29T02:05:42;8.73;;;3.72;;
35699;SDS011;21818;51.078;12.108;2023-05-29T02:08:08;20.48;;;4.55;;
35699;SDS011;21818;51.078;12.108;2023-05-29T02:10:33;5.82;;;3.50;;
35699;SDS011;21818;51.078;12.108;2023-05-29T02:12:59;7.80;;;3.63;;
35699;SDS011;21818;51.078;12.108;2023-05-29T02:15:25;9.00;;;3.67;;
35699;SDS011;21818;51.078;12.108;2023-05-29T02:17:50;4.88;;;3.03;;
35699;SDS011;21818;51.078;12.108;2023-05-29T02:20:16;5.05;;;2.88;;
35699;SDS011;21818;51.078;12.108;2023-05-29T02:22:42;7.05;;;3.50;;
35699;SDS011;21818;51.078;12.108;2023-05-29T02:25:08;6.97;;;3.75;;
35699;SDS011;21818;51.078;12.108;2023-05-29T02:27:33;7.43;;;3.38;;
35699;SDS011;21818;51.078;12.108;2023-05-29T02:29:59;14.10;;;4.30;;
35699;SDS011;21818;51.078;12.108;2023-05-29T02:32:25;6.78;;;3.50;;
35699;SDS011;21818;51.078;12.108;2023-05-29T02:34:52;5.85;;;3.13;;
35699;SDS011;21818;51.078;12.108;2023-05-29T02:37:18;8.50;;;4.00;;
35699;SDS011;21818;51.078;12.108;2023-05-29T02:39:44;7.95;;;3.28;;
35699;SDS011;21818;51.078;12.108;2023-05-29T02:42:09;5.70;;;3.50;;
35699;SDS011;21818;51.078;12.108;2023-05-29T02:44:35;7.88;;;3.63;;
35699;SDS011;21818;51.078;12.108;2023-05-29T02:47:01;9.55;;;3.38;;
35699;SDS011;21818;51.078;12.108;2023-05-29T02:49:26;7.55;;;3.78;;
35699;SDS011;21818;51.078;12.108;2023-05-29T02:51:52;8.95;;;4.25;;
35699;SDS011;21818;51.078;12.108;2023-05-29T02:54:22;7.25;;;3.42;;
35699;SDS011;21818;51.078;12.108;2023-05-29T02:56:48;6.45;;;3.40;;
35699;SDS011;21818;51.078;12.108;2023-05-29T02:59:13;7.50;;;4.28;;
35699;SDS011;21818;51.078;12.108;2023-05-29T03:01:39;8.25;;;4.15;;
35699;SDS011;21818;51.078;12.108;2023-05-29T03:04:05;6.20;;;3.80;;
35699;SDS011;21818;51.078;12.108;2023-05-29T03:06:31;7.22;;;3.80;;
35699;SDS011;21818;51.078;12.108;2023-05-29T03:08:57;10.05;;;3.97;;
35699;SDS011;21818;51.078;12.108;2023-05-29T03:11:24;7.43;;;4.22;;
35699;SDS011;21818;51.078;12.108;2023-05-29T03:13:50;7.88;;;4.22;;
35699;SDS011;21818;51.078;12.108;2023-05-29T03:16:15;7.13;;;3.65;;
35699;SDS011;21818;51.078;12.108;2023-05-29T03:18:41;8.70;;;4.05;;
35699;SDS011;21818;51.078;12.108;2023-05-29T03:21:07;8.88;;;3.97;;
35699;SDS011;21818;51.078;12.108;2023-05-29T03:23:33;11.38;;;4.20;;
35699;SDS011;21818;51.078;12.108;2023-05-29T03:25:58;9.40;;;3.67;;
35699;SDS011;21818;51.078;12.108;2023-05-29T03:28:24;8.88;;;4.13;;
35699;SDS011;21818;51.078;12.108;2023-05-29T03:30:49;10.68;;;3.60;;
35699;SDS011;21818;51.078;12.108;2023-05-29T03:33:16;9.38;;;3.50;;
35699;SDS011;21818;51.078;12.108;2023-05-29T03:35:42;6.63;;;3.83;;
35699;SDS011;21818;51.078;12.108;2023-05-29T03:38:07;8.38;;;4.20;;
35699;SDS011;21818;51.078;12.108;2023-05-29T03:40:33;7.72;;;3.25;;
35699;SDS011;21818;51.078;12.108;2023-05-29T03:42:58;6.03;;;3.65;;
35699;SDS011;21818;51.078;12.108;2023-05-29T03:45:24;9.52;;;3.95;;
35699;SDS011;21818;51.078;12.108;2023-05-29T03:47:50;8.90;;;3.65;;
35699;SDS011;21818;51.078;12.108;2023-05-29T03:50:16;10.75;;;3.53;;
35699;SDS011;21818;51.078;12.108;2023-05-29T03:52:41;8.18;;;3.38;;
35699;SDS011;21818;51.078;12.108;2023-05-29T03:55:08;8.57;;;3.50;;
35699;SDS011;21818;51.078;12.108;2023-05-29T03:57:39;7.38;;;4.10;;
35699;SDS011;21818;51.078;12.108;2023-05-29T04:00:09;12.68;;;3.88;;
35699;SDS011;21818;51.078;12.108;2023-05-29T04:02:39;10.32;;;4.55;;
35699;SDS011;21818;51.078;12.108;2023-05-29T04:05:05;6.57;;;3.78;;
35699;SDS011;21818;51.078;12.108;2023-05-29T04:07:32;9.35;;;3.80;;
35699;SDS011;21818;51.078;12.108;2023-05-29T04:09:58;7.68;;;3.60;;
35699;SDS011;21818;51.078;12.108;2023-05-29T04:12:24;8.73;;;4.50;;
35699;SDS011;21818;51.078;12.108;2023-05-29T04:14:49;10.57;;;4.32;;
35699;SDS011;21818;51.078;12.108;2023-05-29T04:17:15;10.15;;;3.33;;
35699;SDS011;21818;51.078;12.108;2023-05-29T04:19:40;8.65;;;3.67;;
35699;SDS011;21818;51.078;12.108;2023-05-29T04:22:06;8.13;;;4.10;;
35699;SDS011;21818;51.078;12.108;2023-05-29T04:24:32;8.80;;;3.80;;
35699;SDS011;21818;51.078;12.108;2023-05-29T04:26:58;8.00;;;4.03;;
35699;SDS011;21818;51.078;12.108;2023-05-29T04:29:25;6.88;;;4.00;;
35699;SDS011;21818;51.078;12.108;2023-05-29T04:31:51;9.40;;;3.85;;
35699;SDS011;21818;51.078;12.108;2023-05-29T04:34:17;8.73;;;4.18;;
35699;SDS011;21818;51.078;12.108;2023-05-29T04:36:42;7.43;;;4.15;;
35699;SDS011;21818;51.078;12.108;2023-05-29T04:39:08;6.30;;;3.65;;
35699;SDS011;21818;51.078;12.108;2023-05-29T04:41:34;7.70;;;3.88;;
35699;SDS011;21818;51.078;12.108;2023-05-29T04:44:00;12.85;;;3.85;;
35699;SDS011;21818;51.078;12.108;2023-05-29T04:46:26;8.98;;;3.95;;
35699;SDS011;21818;51.078;12.108;2023-05-29T04:48:52;10.35;;;4.28;;
35699;SDS011;21818;51.078;12.108;2023-05-29T04:51:18;8.70;;;4.53;;
35699;SDS011;21818;51.078;12.108;2023-05-29T04:53:45;7.40;;;3.92;;
35699;SDS011;21818;51.078;12.108;2023-05-29T04:56:11;10.48;;;3.75;;
35699;SDS011;21818;51.078;12.108;2023-05-29T04:58:37;9.35;;;3.85;;
35699;SDS011;21818;51.078;12.108;2023-05-29T05:01:03;14.55;;;4.00;;
35699;SDS011;21818;51.078;12.108;2023-05-29T05:03:29;9.00;;;4.10;;
35699;SDS011;21818;51.078;12.108;2023-05-29T05:05:58;8.32;;;4.15;;
35699;SDS011;21818;51.078;12.108;2023-05-29T05:08:28;8.57;;;3.65;;
35699;SDS011;21818;51.078;12.108;2023-05-29T05:10:58;8.80;;;4.13;;
35699;SDS011;21818;51.078;12.108;2023-05-29T05:13:24;9.82;;;4.07;;
35699;SDS011;21818;51.078;12.108;2023-05-29T05:15:50;9.85;;;3.58;;
35699;SDS011;21818;51.078;12.108;2023-05-29T05:18:16;9.23;;;3.83;;
35699;SDS011;21818;51.078;12.108;2023-05-29T05:20:41;12.02;;;4.18;;
35699;SDS011;21818;51.078;12.108;2023-05-29T05:23:07;10.82;;;3.72;;
35699;SDS011;21818;51.078;12.108;2023-05-29T05:25:32;11.23;;;4.93;;
35699;SDS011;21818;51.078;12.108;2023-05-29T05:28:00;16.45;;;5.35;;
35699;SDS011;21818;51.078;12.108;2023-05-29T05:30:26;7.90;;;3.88;;
35699;SDS011;21818;51.078;12.108;2023-05-29T05:32:51;12.65;;;4.85;;
35699;SDS011;21818;51.078;12.108;2023-05-29T05:35:17;8.70;;;4.00;;
35699;SDS011;21818;51.078;12.108;2023-05-29T05:37:42;11.93;;;4.63;;
35699;SDS011;21818;51.078;12.108;2023-05-29T05:40:08;13.20;;;4.35;;
35699;SDS011;21818;51.078;12.108;2023-05-29T05:42:34;27.48;;;6.68;;
35699;SDS011;21818;51.078;12.108;2023-05-29T05:45:00;30.15;;;7.13;;
35699;SDS011;21818;51.078;12.108;2023-05-29T05:47:26;26.10;;;6.78;;
35699;SDS011;21818;51.078;12.108;2023-05-29T05:49:55;21.85;;;5.78;;
35699;SDS011;21818;51.078;12.108;2023-05-29T05:52:20;19.55;;;5.97;;
35699;SDS011;21818;51.078;12.108;2023-05-29T05:54:47;20.70;;;5.45;;
35699;SDS011;21818;51.078;12.108;2023-05-29T05:57:13;18.15;;;5.00;;
35699;SDS011;21818;51.078;12.108;2023-05-29T05:59:38;13.65;;;4.72;;
35699;SDS011;21818;51.078;12.108;2023-05-29T06:02:04;16.85;;;4.68;;
35699;SDS011;21818;51.078;12.108;2023-05-29T06:04:29;13.00;;;4.22;;
35699;SDS011;21818;51.078;12.108;2023-05-29T06:06:55;13.50;;;4.68;;
35699;SDS011;21818;51.078;12.108;2023-05-29T06:09:21;12.23;;;4.20;;
35699;SDS011;21818;51.078;12.108;2023-05-29T06:11:46;19.13;;;4.72;;
35699;SDS011;21818;51.078;12.108;2023-05-29T06:14:15;12.38;;;4.38;;
35699;SDS011;21818;51.078;12.108;2023-05-29T06:16:41;11.80;;;4.18;;
35699;SDS011;21818;51.078;12.108;2023-05-29T06:19:06;12.43;;;4.32;;
35699;SDS011;21818;51.078;12.108;2023-05-29T06:21:33;14.52;;;4.22;;
35699;SDS011;21818;51.078;12.108;2023-05-29T06:23:58;13.85;;;4.07;;
35699;SDS011;21818;51.078;12.108;2023-05-29T06:26:24;15.20;;;4.32;;
35699;SDS011;21818;51.078;12.108;2023-05-29T06:28:52;18.70;;;4.70;;
35699;SDS011;21818;51.078;12.108;2023-05-29T06:31:18;14.15;;;3.53;;
35699;SDS011;21818;51.078;12.108;2023-05-29T06:33:44;9.55;;;3.85;;
35699;SDS011;21818;51.078;12.108;2023-05-29T06:36:10;13.48;;;4.55;;
35699;SDS011;21818;51.078;12.108;2023-05-29T06:38:36;11.05;;;3.80;;
35699;SDS011;21818;51.078;12.108;2023-05-29T06:41:02;13.43;;;3.63;;
35699;SDS011;21818;51.078;12.108;2023-05-29T06:43:28;9.30;;;3.75;;
35699;SDS011;21818;51.078;12.108;2023-05-29T06:45:54;12.15;;;3.95;;
35699;SDS011;21818;51.078;12.108;2023-05-29T06:48:20;12.98;;;4.50;;
35699;SDS011;21818;51.078;12.108;2023-05-29T06:50:47;12.45;;;4.43;;
35699;SDS011;21818;51.078;12.108;2023-05-29T06:53:13;12.65;;;4.07;;
35699;SDS011;21818;51.078;12.108;2023-05-29T06:55:38;15.20;;;3.78;;
35699;SDS011;21818;51.078;12.108;2023-05-29T06:58:05;11.35;;;3.83;;
35699;SDS011;21818;51.078;12.108;2023-05-29T07:00:31;11.82;;;3.80;;
35699;SDS011;21818;51.078;12.108;2023-05-29T07:02:57;9.80;;;4.30;;
35699;SDS011;21818;51.078;12.108;2023-05-29T07:05:22;11.63;;;3.90;;
35699;SDS011;21818;51.078;12.108;2023-05-29T07:07:48;6.90;;;3.40;;
35699;SDS011;21818;51.078;12.108;2023-05-29T07:10:13;8.90;;;3.47;;
35699;SDS011;21818;51.078;12.108;2023-05-29T07:12:39;12.48;;;3.50;;
35699;SDS011;21818;51.078;12.108;2023-05-29T07:15:05;10.57;;;3.30;;
35699;SDS011;21818;51.078;12.108;2023-05-29T07:17:31;10.75;;;3.88;;
35699;SDS011;21818;51.078;12.108;2023-05-29T07:19:56;11.73;;;4.07;;
35699;SDS011;21818;51.078;12.108;2023-05-29T07:22:22;9.65;;;3.28;;
35699;SDS011;21818;51.078;12.108;2023-05-29T07:24:47;8.50;;;3.40;;
35699;SDS011;21818;51.078;12.108;2023-05-29T07:27:13;9.68;;;3.47;;
35699;SDS011;21818;51.078;12.108;2023-05-29T07:29:38;11.02;;;3.30;;
35699;SDS011;21818;51.078;12.108;2023-05-29T07:32:04;13.05;;;3.60;;
35699;SDS011;21818;51.078;12.108;2023-05-29T07:34:30;11.00;;;3.78;;
35699;SDS011;21818;51.078;12.108;2023-05-29T07:39:25;10.45;;;4.00;;
35699;SDS011;21818;51.078;12.108;2023-05-29T07:41:51;8.07;;;3.55;;
35699;SDS011;21818;51.078;12.108;2023-05-29T07:44:17;11.40;;;3.65;;
35699;SDS011;21818;51.078;12.108;2023-05-29T07:46:43;6.50;;;3.45;;
35699;SDS011;21818;51.078;12.108;2023-05-29T07:49:08;7.88;;;3.58;;
35699;SDS011;21818;51.078;12.108;2023-05-29T07:51:34;10.88;;;3.30;;
35699;SDS011;21818;51.078;12.108;2023-05-29T07:54:00;8.13;;;3.65;;
35699;SDS011;21818;51.078;12.108;2023-05-29T07:56:26;10.23;;;3.40;;
35699;SDS011;21818;51.078;12.108;2023-05-29T07:58:51;7.90;;;3.40;;
35699;SDS011;21818;51.078;12.108;2023-05-29T08:01:19;9.10;;;3.28;;
35699;SDS011;21818;51.078;12.108;2023-05-29T08:03:46;6.68;;;2.60;;
35699;SDS011;21818;51.078;12.108;2023-05-29T08:06:12;9.88;;;3.83;;
35699;SDS011;21818;51.078;12.108;2023-05-29T08:08:38;6.60;;;2.88;;
35699;SDS011;21818;51.078;12.108;2023-05-29T08:11:04;9.02;;;3.65;;
35699;SDS011;21818;51.078;12.108;2023-05-29T08:13:29;10.85;;;3.38;;
35699;SDS011;21818;51.078;12.108;2023-05-29T08:15:56;7.70;;;3.17;;
35699;SDS011;21818;51.078;12.108;2023-05-29T08:18:24;7.47;;;3.33;;
35699;SDS011;21818;51.078;12.108;2023-05-29T08:20:50;10.77;;;3.47;;
35699;SDS011;21818;51.078;12.108;2023-05-29T08:23:16;7.35;;;2.55;;
35699;SDS011;21818;51.078;12.108;2023-05-29T08:25:42;11.93;;;3.42;;
35699;SDS011;21818;51.078;12.108;2023-05-29T08:28:07;7.65;;;3.13;;
35699;SDS011;21818;51.078;12.108;2023-05-29T08:30:33;11.15;;;3.55;;
35699;SDS011;21818;51.078;12.108;2023-05-29T08:32:58;7.32;;;2.88;;
35699;SDS011;21818;51.078;12.108;2023-05-29T08:35:24;10.35;;;3.45;;
35699;SDS011;21818;51.078;12.108;2023-05-29T08:37:49;8.82;;;3.28;;
35699;SDS011;21818;51.078;12.108;2023-05-29T08:40:15;8.25;;;3.08;;
35699;SDS011;21818;51.078;12.108;2023-05-29T08:42:48;6.93;;;3.00;;
35699;SDS011;21818;51.078;12.108;2023-05-29T08:45:35;6.95;;;3.00;;
35699;SDS011;21818;51.078;12.108;2023-05-29T08:48:06;8.52;;;3.33;;
35699;SDS011;21818;51.078;12.108;2023-05-29T08:50:35;8.35;;;3.10;;
35699;SDS011;21818;51.078;12.108;2023-05-29T08:53:07;5.35;;;2.75;;
35699;SDS011;21818;51.078;12.108;2023-05-29T08:55:33;7.80;;;3.05;;
35699;SDS011;21818;51.078;12.108;2023-05-29T08:57:58;7.95;;;2.90;;
35699;SDS011;21818;51.078;12.108;2023-05-29T09:00:24;5.50;;;3.10;;
35699;SDS011;21818;51.078;12.108;2023-05-29T09:02:53;9.38;;;2.95;;
35699;SDS011;21818;51.078;12.108;2023-05-29T09:05:20;7.20;;;2.92;;
35699;SDS011;21818;51.078;12.108;2023-05-29T09:07:46;8.57;;;3.08;;
35699;SDS011;21818;51.078;12.108;2023-05-29T09:10:14;7.85;;;2.78;;
35699;SDS011;21818;51.078;12.108;2023-05-29T09:12:40;7.93;;;3.40;;
35699;SDS011;21818;51.078;12.108;2023-05-29T09:15:27;6.20;;;2.95;;
35699;SDS011;21818;51.078;12.108;2023-05-29T09:17:53;6.95;;;3.50;;
35699;SDS011;21818;51.078;12.108;2023-05-29T09:20:21;8.10;;;3.22;;
35699;SDS011;21818;51.078;12.108;2023-05-29T09:22:56;8.70;;;3.10;;
35699;SDS011;21818;51.078;12.108;2023-05-29T09:25:23;5.97;;;2.60;;
35699;SDS011;21818;51.078;12.108;2023-05-29T09:27:55;8.48;;;3.15;;
35699;SDS011;21818;51.078;12.108;2023-05-29T09:30:39;5.80;;;2.65;;
35699;SDS011;21818;51.078;12.108;2023-05-29T09:33:09;6.47;;;3.05;;
35699;SDS011;21818;51.078;12.108;2023-05-29T09:35:45;5.30;;;2.97;;
35699;SDS011;21818;51.078;12.108;2023-05-29T09:38:13;9.45;;;3.22;;
35699;SDS011;21818;51.078;12.108;2023-05-29T09:40:40;7.93;;;2.88;;
35699;SDS011;21818;51.078;12.108;2023-05-29T09:45:42;6.55;;;2.92;;
35699;SDS011;21818;51.078;12.108;2023-05-29T09:48:16;9.73;;;2.92;;
35699;SDS011;21818;51.078;12.108;2023-05-29T09:50:43;7.75;;;3.05;;
35699;SDS011;21818;51.078;12.108;2023-05-29T09:53:24;4.80;;;2.50;;
35699;SDS011;21818;51.078;12.108;2023-05-29T09:55:51;8.55;;;3.33;;
35699;SDS011;21818;51.078;12.108;2023-05-29T09:58:19;6.22;;;3.10;;
35699;SDS011;21818;51.078;12.108;2023-05-29T10:00:45;10.38;;;3.60;;
35699;SDS011;21818;51.078;12.108;2023-05-29T10:03:13;8.02;;;3.35;;
35699;SDS011;21818;51.078;12.108;2023-05-29T10:05:43;5.80;;;2.60;;
35699;SDS011;21818;51.078;12.108;2023-05-29T10:08:12;5.50;;;2.53;;
35699;SDS011;21818;51.078;12.108;2023-05-29T10:10:45;8.10;;;3.30;;
35699;SDS011;21818;51.078;12.108;2023-05-29T10:13:14;7.07;;;2.92;;
35699;SDS011;21818;51.078;12.108;2023-05-29T10:15:41;6.65;;;2.53;;
35699;SDS011;21818;51.078;12.108;2023-05-29T10:18:20;4.05;;;2.30;;
35699;SDS011;21818;51.078;12.108;2023-05-29T10:20:52;4.70;;;2.63;;
35699;SDS011;21818;51.078;12.108;2023-05-29T10:23:21;6.20;;;2.42;;
35699;SDS011;21818;51.078;12.108;2023-05-29T10:25:54;5.53;;;2.57;;
35699;SDS011;21818;51.078;12.108;2023-05-29T10:28:42;7.80;;;3.88;;
35699;SDS011;21818;51.078;12.108;2023-05-29T10:31:17;6.65;;;2.42;;
35699;SDS011;21818;51.078;12.108;2023-05-29T10:36:28;6.32;;;2.28;;
35699;SDS011;21818;51.078;12.108;2023-05-29T10:38:59;7.35;;;2.67;;
35699;SDS011;21818;51.078;12.108;2023-05-29T10:43:52;8.05;;;2.80;;
35699;SDS011;21818;51.078;12.108;2023-05-29T10:46:32;4.28;;;2.22;;
35699;SDS011;21818;51.078;12.108;2023-05-29T10:49:20;4.97;;;2.58;;
35699;SDS011;21818;51.078;12.108;2023-05-29T10:51:46;5.43;;;2.45;;
35699;SDS011;21818;51.078;12.108;2023-05-29T10:54:13;6.97;;;2.85;;
35699;SDS011;21818;51.078;12.108;2023-05-29T10:56:39;4.72;;;2.42;;
35699;SDS011;21818;51.078;12.108;2023-05-29T10:59:07;8.40;;;3.25;;
35699;SDS011;21818;51.078;12.108;2023-05-29T11:01:33;8.82;;;2.53;;
35699;SDS011;21818;51.078;12.108;2023-05-29T11:06:42;7.30;;;2.85;;
35699;SDS011;21818;51.078;12.108;2023-05-29T11:15:05;6.70;;;2.53;;
35699;SDS011;21818;51.078;12.108;2023-05-29T11:17:32;6.03;;;3.05;;
35699;SDS011;21818;51.078;12.108;2023-05-29T11:22:42;6.93;;;2.53;;
35699;SDS011;21818;51.078;12.108;2023-05-29T11:25:39;5.75;;;2.28;;
35699;SDS011;21818;51.078;12.108;2023-05-29T11:28:05;4.70;;;2.25;;
35699;SDS011;21818;51.078;12.108;2023-05-29T11:30:41;4.97;;;2.10;;
35699;SDS011;21818;51.078;12.108;2023-05-29T11:33:13;7.88;;;2.42;;
35699;SDS011;21818;51.078;12.108;2023-05-29T11:35:55;5.55;;;2.28;;
35699;SDS011;21818;51.078;12.108;2023-05-29T11:38:23;4.72;;;2.22;;
35699;SDS011;21818;51.078;12.108;2023-05-29T11:40:49;5.97;;;2.67;;
35699;SDS011;21818;51.078;12.108;2023-05-29T11:43:15;7.70;;;2.60;;
35699;SDS011;21818;51.078;12.108;2023-05-29T11:45:41;5.80;;;2.75;;
35699;SDS011;21818;51.078;12.108;2023-05-29T11:48:06;5.53;;;2.20;;
35699;SDS011;21818;51.078;12.108;2023-05-29T11:50:32;5.35;;;2.60;;
35699;SDS011;21818;51.078;12.108;2023-05-29T11:53:01;5.18;;;2.38;;
35699;SDS011;21818;51.078;12.108;2023-05-29T11:55:27;4.78;;;2.42;;
35699;SDS011;21818;51.078;12.108;2023-05-29T11:57:59;6.60;;;2.55;;
35699;SDS011;21818;51.078;12.108;2023-05-29T12:00:30;5.60;;;2.47;;
35699;SDS011;21818;51.078;12.108;2023-05-29T12:03:00;5.10;;;2.85;;
35699;SDS011;21818;51.078;12.108;2023-05-29T12:05:30;6.65;;;2.72;;
35699;SDS011;21818;51.078;12.108;2023-05-29T12:07:56;4.60;;;2.13;;
35699;SDS011;21818;51.078;12.108;2023-05-29T12:10:22;5.78;;;2.50;;
35699;SDS011;21818;51.078;12.108;2023-05-29T12:12:58;3.97;;;2.03;;
35699;SDS011;21818;51.078;12.108;2023-05-29T12:15:26;4.38;;;2.60;;
35699;SDS011;21818;51.078;12.108;2023-05-29T12:17:52;4.00;;;2.13;;
35699;SDS011;21818;51.078;12.108;2023-05-29T12:20:18;4.55;;;2.15;;
35699;SDS011;21818;51.078;12.108;2023-05-29T12:22:46;4.10;;;2.10;;
35699;SDS011;21818;51.078;12.108;2023-05-29T12:25:12;4.88;;;2.47;;
35699;SDS011;21818;51.078;12.108;2023-05-29T12:27:41;5.88;;;2.83;;
35699;SDS011;21818;51.078;12.108;2023-05-29T12:30:08;3.72;;;2.05;;
35699;SDS011;21818;51.078;12.108;2023-05-29T12:32:38;4.57;;;2.00;;
35699;SDS011;21818;51.078;12.108;2023-05-29T12:37:43;4.22;;;2.38;;
35699;SDS011;21818;51.078;12.108;2023-05-29T12:40:15;4.65;;;2.22;;
35699;SDS011;21818;51.078;12.108;2023-05-29T12:42:45;3.92;;;2.15;;
35699;SDS011;21818;51.078;12.108;2023-05-29T12:45:12;4.90;;;2.50;;
35699;SDS011;21818;51.078;12.108;2023-05-29T12:47:37;3.65;;;2.25;;
35699;SDS011;21818;51.078;12.108;2023-05-29T12:50:22;5.63;;;1.90;;
35699;SDS011;21818;51.078;12.108;2023-05-29T12:55:35;4.45;;;2.83;;
35699;SDS011;21818;51.078;12.108;2023-05-29T12:58:14;4.75;;;2.30;;
35699;SDS011;21818;51.078;12.108;2023-05-29T13:00:41;4.75;;;2.45;;
35699;SDS011;21818;51.078;12.108;2023-05-29T13:03:07;4.90;;;2.40;;
35699;SDS011;21818;51.078;12.108;2023-05-29T13:05:34;4.47;;;2.15;;
35699;SDS011;21818;51.078;12.108;2023-05-29T13:08:00;4.35;;;2.22;;
35699;SDS011;21818;51.078;12.108;2023-05-29T13:10:26;4.53;;;2.45;;
35699;SDS011;21818;51.078;12.108;2023-05-29T13:12:53;6.07;;;2.30;;
35699;SDS011;21818;51.078;12.108;2023-05-29T13:15:20;3.70;;;1.88;;
35699;SDS011;21818;51.078;12.108;2023-05-29T13:17:47;4.43;;;2.40;;
35699;SDS011;21818;51.078;12.108;2023-05-29T13:20:13;4.43;;;2.15;;
35699;SDS011;21818;51.078;12.108;2023-05-29T13:22:40;6.75;;;2.40;;
35699;SDS011;21818;51.078;12.108;2023-05-29T13:25:07;3.47;;;2.05;;
35699;SDS011;21818;51.078;12.108;2023-05-29T13:27:37;7.03;;;2.50;;
35699;SDS011;21818;51.078;12.108;2023-05-29T13:30:04;6.85;;;2.25;;
35699;SDS011;21818;51.078;12.108;2023-05-29T13:32:30;5.53;;;2.42;;
35699;SDS011;21818;51.078;12.108;2023-05-29T13:34:56;4.57;;;2.42;;
35699;SDS011;21818;51.078;12.108;2023-05-29T13:37:22;3.50;;;2.22;;
35699;SDS011;21818;51.078;12.108;2023-05-29T13:39:48;4.88;;;1.98;;
35699;SDS011;21818;51.078;12.108;2023-05-29T13:42:14;2.75;;;1.58;;
35699;SDS011;21818;51.078;12.108;2023-05-29T13:44:40;4.03;;;2.15;;
35699;SDS011;21818;51.078;12.108;2023-05-29T13:47:05;2.78;;;1.98;;
35699;SDS011;21818;51.078;12.108;2023-05-29T13:49:33;4.32;;;2.65;;
35699;SDS011;21818;51.078;12.108;2023-05-29T13:51:59;4.97;;;2.22;;
35699;SDS011;21818;51.078;12.108;2023-05-29T13:54:25;3.22;;;2.20;;
35699;SDS011;21818;51.078;12.108;2023-05-29T13:56:52;4.63;;;2.08;;
35699;SDS011;21818;51.078;12.108;2023-05-29T13:59:18;5.65;;;2.05;;
35699;SDS011;21818;51.078;12.108;2023-05-29T14:01:44;5.13;;;2.35;;
35699;SDS011;21818;51.078;12.108;2023-05-29T14:04:09;3.30;;;1.80;;
35699;SDS011;21818;51.078;12.108;2023-05-29T14:06:35;3.70;;;1.98;;
35699;SDS011;21818;51.078;12.108;2023-05-29T14:09:01;3.58;;;1.95;;
35699;SDS011;21818;51.078;12.108;2023-05-29T14:11:27;3.75;;;2.13;;
35699;SDS011;21818;51.078;12.108;2023-05-29T14:13:53;3.65;;;2.08;;
35699;SDS011;21818;51.078;12.108;2023-05-29T14:16:18;4.55;;;2.25;;
35699;SDS011;21818;51.078;12.108;2023-05-29T14:18:44;3.63;;;2.15;;
35699;SDS011;21818;51.078;12.108;2023-05-29T14:21:10;4.38;;;2.10;;
35699;SDS011;21818;51.078;12.108;2023-05-29T14:23:37;4.82;;;2.20;;
35699;SDS011;21818;51.078;12.108;2023-05-29T14:26:03;3.15;;;1.92;;
35699;SDS011;21818;51.078;12.108;2023-05-29T14:28:28;4.28;;;2.13;;
35699;SDS011;21818;51.078;12.108;2023-05-29T14:30:54;3.38;;;2.13;;
35699;SDS011;21818;51.078;12.108;2023-05-29T14:33:20;4.93;;;2.45;;
35699;SDS011;21818;51.078;12.108;2023-05-29T14:35:45;5.75;;;2.70;;
35699;SDS011;21818;51.078;12.108;2023-05-29T14:38:11;4.50;;;2.40;;
35699;SDS011;21818;51.078;12.108;2023-05-29T14:40:36;2.88;;;1.67;;
35699;SDS011;21818;51.078;12.108;2023-05-29T14:43:02;3.10;;;1.90;;
35699;SDS011;21818;51.078;12.108;2023-05-29T14:45:28;4.10;;;1.92;;
35699;SDS011;21818;51.078;12.108;2023-05-29T14:47:54;3.50;;;2.10;;
35699;SDS011;21818;51.078;12.108;2023-05-29T14:50:19;4.30;;;1.80;;
35699;SDS011;21818;51.078;12.108;2023-05-29T14:52:45;3.72;;;1.95;;
35699;SDS011;21818;51.078;12.108;2023-05-29T14:55:12;3.63;;;1.98;;
35699;SDS011;21818;51.078;12.108;2023-05-29T14:57:40;4.22;;;2.08;;
35699;SDS011;21818;51.078;12.108;2023-05-29T15:00:06;3.47;;;2.20;;
35699;SDS011;21818;51.078;12.108;2023-05-29T15:02:32;4.15;;;1.90;;
35699;SDS011;21818;51.078;12.108;2023-05-29T15:04:58;3.70;;;2.03;;
35699;SDS011;21818;51.078;12.108;2023-05-29T15:07:23;3.45;;;2.00;;
35699;SDS011;21818;51.078;12.108;2023-05-29T15:09:49;3.38;;;1.88;;